Time;durP1;ratioP1;P1;durP2;ratioP2;P2;SDS_P1;SDS_P2;PMS_P1;PMS_P2;Temp;Humidity;BMP_temperature;BMP_pressure;BME280_temperature;BME280_humidity;BME280_pressure;Samples;Min_cycle;Max_cycle;Signal;HPM_P1;HPM_P2
2022/10/04 00:01:50;;;;;;;23.13;8.50;;;12.20;99.90;;;;;;4955765;28;205914;-71
2022/10/04 00:04:22;;;;;;;19.92;8.50;;;12.20;99.90;;;;;;4999278;28;20058;-73
2022/10/04 00:06:53;;;;;;;20.95;7.65;;;12.20;99.90;;;;;;4959478;28;205942;-71
2022/10/04 00:09:22;;;;;;;20.98;8.63;;;12.20;99.90;;;;;;5000058;28;20518;-72
2022/10/04 00:11:51;;;;;;;20.33;8.13;;;12.10;99.90;;;;;;4958081;28;212731;-72
2022/10/04 00:14:31;;;;;;;15.23;6.95;;;12.10;99.90;;;;;;5002413;28;20060;-72
2022/10/04 00:16:58;;;;;;;20.95;7.70;;;12.10;99.90;;;;;;4972767;28;210581;-72
2022/10/04 00:19:38;;;;;;;21.27;8.45;;;12.10;99.90;;;;;;4982650;28;20538;-71
2022/10/04 00:22:07;;;;;;;17.08;7.32;;;12.10;99.90;;;;;;4959167;28;212286;-71
2022/10/04 00:24:34;;;;;;;18.52;7.32;;;12.10;99.90;;;;;;5005207;28;20060;-72
2022/10/04 00:27:21;;;;;;;17.52;7.18;;;12.10;99.90;;;;;;4966062;28;204811;-71
2022/10/04 00:30:02;;;;;;;18.08;7.90;;;12.10;99.90;;;;;;5023720;28;20057;-73
2022/10/04 00:32:39;;;;;;;20.55;8.65;;;12.00;99.90;;;;;;4965388;28;215234;-72
2022/10/04 00:35:24;;;;;;;21.35;8.15;;;12.00;99.90;;;;;;5019002;28;20064;-72
2022/10/04 00:38:05;;;;;;;19.92;8.77;;;12.00;99.90;;;;;;4923116;28;143275;-71
2022/10/04 00:40:50;;;;;;;24.70;9.35;;;12.00;99.90;;;;;;4965728;28;211645;-71
2022/10/04 00:43:19;;;;;;;20.02;8.75;;;12.00;99.90;;;;;;5019666;28;20046;-72
2022/10/04 00:45:53;;;;;;;23.70;9.45;;;11.90;99.90;;;;;;4961272;28;234972;-72
2022/10/04 00:48:36;;;;;;;22.00;9.23;;;11.90;99.90;;;;;;5016922;28;20064;-73
2022/10/04 00:51:10;;;;;;;24.02;9.18;;;11.90;99.90;;;;;;4963871;28;219080;-72
2022/10/04 00:53:39;;;;;;;18.48;8.52;;;11.90;99.90;;;;;;5010578;28;20688;-72
2022/10/04 00:56:13;;;;;;;22.35;9.73;;;11.90;99.90;;;;;;4963356;28;206685;-72
2022/10/04 00:58:53;;;;;;;23.58;9.50;;;11.90;99.90;;;;;;5001888;28;20058;-73
2022/10/04 01:01:25;;;;;;;24.13;9.63;;;11.90;99.90;;;;;;4961035;28;216482;-71
2022/10/04 01:03:53;;;;;;;23.67;10.18;;;11.80;99.90;;;;;;5010368;28;20064;-71
2022/10/04 01:06:20;;;;;;;21.90;9.73;;;11.80;99.90;;;;;;4970335;28;217356;-72
2022/10/04 01:09:00;;;;;;;23.70;10.07;;;11.80;99.90;;;;;;4988078;28;20073;-71
2022/10/04 01:11:29;;;;;;;23.70;9.80;;;11.80;99.90;;;;;;4960552;28;219943;-73
2022/10/04 01:13:55;;;;;;;20.25;9.55;;;11.80;99.90;;;;;;5002572;28;20065;-71
2022/10/04 01:16:26;;;;;;;20.80;9.40;;;11.80;99.90;;;;;;4961524;28;210617;-72
2022/10/04 01:18:52;;;;;;;21.73;9.50;;;11.80;99.90;;;;;;5006041;28;20045;-73
2022/10/04 01:21:19;;;;;;;25.27;9.80;;;11.80;99.90;;;;;;4962514;28;209025;-72
2022/10/04 01:23:46;;;;;;;23.30;9.52;;;11.80;99.90;;;;;;5014287;28;20073;-72
2022/10/04 01:26:33;;;;;;;20.60;9.77;;;11.80;99.90;;;;;;4969225;28;210098;-71
2022/10/04 01:29:25;;;;;;;17.25;9.02;;;11.80;99.90;;;;;;5006019;28;20061;-71
2022/10/04 01:31:52;;;;;;;;;;;11.80;99.90;;;;;;4941314;28;211890;-72
2022/10/04 01:34:24;;;;;;;21.85;9.20;;;11.80;99.90;;;;;;5014560;28;19925;-72
2022/10/04 01:36:54;;;;;;;21.30;9.27;;;11.80;99.90;;;;;;4941748;28;210284;-73
2022/10/04 01:39:22;;;;;;;22.10;9.80;;;11.80;99.90;;;;;;5002435;28;20046;-72
2022/10/04 01:41:59;;;;;;;20.08;9.27;;;11.80;99.90;;;;;;4969110;28;211579;-72
2022/10/04 01:44:54;;;;;;;24.08;9.00;;;11.80;99.90;;;;;;5034989;28;20534;-73
2022/10/04 01:47:46;;;;;;;19.42;8.63;;;11.80;99.90;;;;;;4962113;28;207118;-71
2022/10/04 01:50:28;;;;;;;18.45;8.70;;;11.80;99.90;;;;;;4983645;28;211909;-72
2022/10/04 01:53:18;;;;;;;23.77;8.70;;;11.80;99.90;;;;;;4964441;28;143403;-72
2022/10/04 01:55:50;;;;;;;21.95;8.75;;;11.80;99.90;;;;;;4978688;28;206929;-71
2022/10/04 01:58:25;;;;;;;18.55;8.18;;;11.80;99.90;;;;;;5008304;28;20049;-72
2022/10/04 02:01:00;;;;;;;20.73;8.27;;;11.90;99.90;;;;;;4968824;28;214316;-72
2022/10/04 02:03:32;;;;;;;21.23;8.07;;;11.90;99.90;;;;;;5013406;28;20511;-73
2022/10/04 02:06:01;;;;;;;21.30;8.25;;;11.90;99.90;;;;;;4974014;28;215244;-72
2022/10/04 02:08:34;;;;;;;19.60;7.93;;;11.90;99.90;;;;;;5012744;28;20052;-72
2022/10/04 02:11:03;;;;;;;19.17;7.68;;;11.90;99.90;;;;;;4967250;28;213436;-72
2022/10/04 02:13:36;;;;;;;19.77;7.93;;;11.90;99.90;;;;;;4999729;28;20525;-73
2022/10/04 02:16:07;;;;;;;18.70;7.45;;;11.90;99.90;;;;;;4956572;28;228399;-71
2022/10/04 02:18:42;;;;;;;18.85;7.90;;;11.80;99.90;;;;;;4984687;28;20582;-72
2022/10/04 02:21:10;;;;;;;18.58;8.00;;;11.80;99.90;;;;;;4960131;28;212886;-72
2022/10/04 02:23:37;;;;;;;22.23;7.60;;;11.80;99.90;;;;;;4984271;28;20582;-72
2022/10/04 02:26:08;;;;;;;20.70;7.55;;;11.80;99.90;;;;;;4943041;28;207275;-73
2022/10/04 02:28:35;;;;;;;21.13;7.63;;;11.80;99.90;;;;;;4994831;28;20050;-72
2022/10/04 02:33:51;;;;;;;22.02;7.82;;;11.70;99.90;;;;;;5002704;28;20049;-72
2022/10/04 02:36:22;;;;;;;22.08;7.88;;;11.70;99.90;;;;;;4979936;28;205973;-72
2022/10/04 02:39:12;;;;;;;20.02;7.60;;;11.70;99.90;;;;;;5011055;28;20046;-73
2022/10/04 02:42:03;;;;;;;19.35;8.50;;;11.60;99.90;;;;;;4986953;28;219963;-73
2022/10/04 02:44:48;;;;;;;18.20;8.52;;;11.60;99.90;;;;;;4970283;28;20062;-72
2022/10/04 02:47:25;;;;;;;19.13;8.80;;;11.50;99.90;;;;;;4911042;28;210220;-73
2022/10/04 02:49:56;;;;;;;22.23;9.32;;;11.50;99.90;;;;;;4963538;28;20051;-72
2022/10/04 02:52:43;;;;;;;20.63;9.27;;;11.40;99.90;;;;;;4901612;28;207320;-73
2022/10/04 02:55:21;;;;;;;21.52;9.68;;;11.40;99.90;;;;;;4975751;28;20046;-71
2022/10/04 02:57:51;;;;;;;23.27;9.68;;;11.40;99.90;;;;;;4918213;28;207600;-74
2022/10/04 03:00:27;;;;;;;22.05;9.55;;;11.40;99.90;;;;;;4914618;28;209961;-73
2022/10/04 03:03:16;;;;;;;19.83;9.07;;;11.40;99.90;;;;;;4954918;28;20558;-72
2022/10/04 03:05:45;;;;;;;20.00;9.88;;;11.30;99.90;;;;;;4917091;28;208427;-73
2022/10/04 03:08:12;;;;;;;20.70;9.07;;;11.20;99.90;;;;;;4958895;28;20083;-72
2022/10/04 03:10:41;;;;;;;23.75;10.10;;;11.20;99.90;;;;;;4920127;28;206345;-71
2022/10/04 03:13:08;;;;;;;21.58;9.88;;;11.20;99.90;;;;;;4950280;28;20198;-72
2022/10/04 03:15:34;;;;;;;27.23;10.18;;;11.10;99.90;;;;;;4931978;28;205940;-73
2022/10/04 03:18:01;;;;;;;24.80;10.63;;;11.10;99.90;;;;;;4960950;28;20054;-74
2022/10/04 03:20:27;;;;;;;25.80;10.90;;;11.10;99.90;;;;;;4930620;28;205341;-73
2022/10/04 03:22:55;;;;;;;27.30;10.85;;;11.00;99.90;;;;;;4990444;28;20050;-73
2022/10/04 03:25:28;;;;;;;23.33;10.63;;;11.00;99.90;;;;;;4955158;28;214488;-73
2022/10/04 03:27:59;;;;;;;19.52;9.80;;;11.00;99.90;;;;;;5014520;28;20068;-73
2022/10/04 03:30:25;;;;;;;22.77;11.20;;;10.90;99.90;;;;;;4956918;28;208190;-74
2022/10/04 03:32:52;;;;;;;22.33;11.07;;;10.90;99.90;;;;;;5019722;28;20432;-72
2022/10/04 03:35:39;;;;;;;21.95;10.85;;;10.90;99.90;;;;;;4970601;28;206748;-72
2022/10/04 03:38:07;;;;;;;23.50;10.90;;;10.90;99.90;;;;;;5014622;28;20049;-74
2022/10/04 03:40:36;;;;;;;27.25;11.10;;;10.90;99.90;;;;;;4962953;28;206908;-72
2022/10/04 03:43:05;;;;;;;24.80;11.10;;;10.80;99.90;;;;;;5016665;28;20065;-73
2022/10/04 03:45:33;;;;;;;23.80;10.93;;;10.80;99.90;;;;;;4952772;28;215177;-72
2022/10/04 03:48:06;;;;;;;23.17;11.55;;;10.80;99.90;;;;;;5031057;28;20049;-72
2022/10/04 03:50:40;;;;;;;24.42;12.45;;;10.80;99.90;;;;;;4957609;28;215062;-72
2022/10/04 03:53:26;;;;;;;25.75;11.68;;;10.80;99.90;;;;;;5030931;28;20049;-74
2022/10/04 03:55:53;;;;;;;28.08;12.10;;;10.80;99.90;;;;;;4981690;28;211666;-73
2022/10/04 03:58:20;;;;;;;23.33;11.02;;;10.70;99.90;;;;;;5032526;28;21445;-73
2022/10/04 04:01:05;;;;;;;24.77;12.18;;;10.70;99.90;;;;;;4964530;28;223780;-73
2022/10/04 04:03:54;;;;;;;24.23;11.80;;;10.70;99.90;;;;;;5012113;28;20400;-72
2022/10/04 04:06:22;;;;;;;22.13;11.30;;;10.60;99.90;;;;;;4985150;28;206369;-72
2022/10/04 04:08:53;;;;;;;23.92;12.38;;;10.60;99.90;;;;;;5016221;28;20054;-72
2022/10/04 04:11:26;;;;;;;26.85;11.98;;;10.50;99.90;;;;;;4966517;28;213470;-71
2022/10/04 04:14:07;;;;;;;22.00;11.95;;;10.50;99.90;;;;;;5019149;28;20058;-72
2022/10/04 04:16:35;;;;;;;22.48;12.15;;;10.50;99.90;;;;;;4975937;28;209740;-72
2022/10/04 04:19:08;;;;;;;23.65;12.45;;;10.50;99.90;;;;;;5015197;28;20061;-73
2022/10/04 04:21:35;;;;;;;21.65;12.68;;;10.40;99.90;;;;;;4990195;28;213125;-73
2022/10/04 04:24:05;;;;;;;25.52;12.68;;;10.40;99.90;;;;;;5007477;28;20046;-72
2022/10/04 04:26:39;;;;;;;23.77;12.82;;;10.40;99.90;;;;;;4984304;28;209719;-74
2022/10/04 04:29:05;;;;;;;21.02;11.73;;;10.40;99.90;;;;;;5007289;28;20058;-72
2022/10/04 04:31:51;;;;;;;24.33;12.73;;;10.30;99.90;;;;;;4958893;28;215968;-72
2022/10/04 04:34:30;;;;;;;23.38;12.90;;;10.30;99.90;;;;;;5006316;28;20073;-73
2022/10/04 04:37:02;;;;;;;21.85;12.60;;;10.30;99.90;;;;;;4982302;28;211367;-73
2022/10/04 04:39:33;;;;;;;24.73;13.52;;;10.20;99.90;;;;;;5005471;28;20054;-72
2022/10/04 04:42:20;;;;;;;28.08;14.63;;;10.30;99.90;;;;;;4977461;28;210935;-73
2022/10/04 04:44:55;;;;;;;30.08;18.23;;;10.30;99.90;;;;;;5009116;28;20438;-72
2022/10/04 04:47:28;;;;;;;31.67;18.67;;;10.30;99.90;;;;;;4974007;28;205495;-73
2022/10/04 04:50:05;;;;;;;31.50;16.05;;;10.30;99.90;;;;;;5017893;28;20482;-72
2022/10/04 04:52:32;;;;;;;23.63;14.63;;;10.30;99.90;;;;;;4946882;28;205734;-73
2022/10/04 04:54:59;;;;;;;30.92;16.83;;;10.30;99.90;;;;;;5007064;28;20057;-73
2022/10/04 04:57:26;;;;;;;32.83;18.90;;;10.30;99.90;;;;;;4963696;28;206260;-73
2022/10/04 04:59:57;;;;;;;26.85;16.80;;;10.30;99.90;;;;;;5001445;28;20057;-73
2022/10/04 05:02:50;;;;;;;30.20;18.65;;;10.40;99.90;;;;;;4958684;28;206309;-74
2022/10/04 05:05:17;;;;;;;28.45;18.35;;;10.30;99.90;;;;;;4966250;28;228919;-72
2022/10/04 05:07:44;;;;;;;28.08;16.17;;;10.30;99.90;;;;;;5026486;28;20419;-73
2022/10/04 05:10:31;;;;;;;26.88;14.98;;;10.30;99.90;;;;;;5010560;28;20050;-72
2022/10/04 05:13:00;;;;;;;31.90;16.38;;;10.30;99.90;;;;;;4969642;28;218030;-74
2022/10/04 05:15:39;;;;;;;26.30;15.45;;;10.30;99.90;;;;;;4972021;28;212232;-73
2022/10/04 05:18:20;;;;;;;29.23;15.75;;;10.30;99.90;;;;;;5009965;28;20069;-72
2022/10/04 05:20:50;;;;;;;30.13;16.67;;;10.30;99.90;;;;;;4956132;28;213163;-73
2022/10/04 05:23:17;;;;;;;23.38;14.65;;;10.20;99.90;;;;;;5019579;28;20054;-72
2022/10/04 05:25:43;;;;;;;30.13;15.80;;;10.30;99.90;;;;;;4967656;28;229818;-73
2022/10/04 05:28:13;;;;;;;25.88;15.55;;;10.20;99.90;;;;;;5017972;28;20663;-72
2022/10/04 05:30:47;;;;;;;31.02;16.38;;;10.20;99.90;;;;;;4965552;28;226046;-73
2022/10/04 05:33:25;;;;;;;27.15;15.90;;;10.20;99.90;;;;;;5018292;28;20053;-72
2022/10/04 05:36:09;;;;;;;24.08;14.75;;;10.20;99.90;;;;;;4978039;28;204858;-72
2022/10/04 05:38:47;;;;;;;28.02;15.77;;;10.20;99.90;;;;;;5011721;28;20046;-72
2022/10/04 05:41:34;;;;;;;25.80;15.10;;;10.10;99.90;;;;;;4964934;28;207443;-73
2022/10/04 05:44:01;;;;;;;32.53;16.50;;;10.20;99.90;;;;;;5011114;28;20049;-72
2022/10/04 05:46:33;;;;;;;30.63;16.38;;;10.10;99.90;;;;;;4981119;28;262827;-73
2022/10/04 05:49:07;;;;;;;31.23;18.70;;;10.10;99.90;;;;;;5003377;28;20050;-73
2022/10/04 05:51:46;;;;;;;31.52;19.58;;;10.10;99.90;;;;;;4989555;28;216732;-73
2022/10/04 05:54:13;;;;;;;26.67;17.35;;;10.10;99.90;;;;;;5016633;28;20052;-72
2022/10/04 05:56:54;;;;;;;33.78;17.60;;;10.10;99.90;;;;;;4972009;28;205784;-76
2022/10/04 05:59:51;;;;;;;26.13;17.13;;;10.10;99.90;;;;;;5005294;28;20529;-74
2022/10/04 06:02:38;;;;;;;29.90;18.65;;;10.10;99.90;;;;;;4999620;28;185287;-73
2022/10/04 06:05:48;;;;;;;33.00;19.67;;;10.10;99.90;;;;;;5007309;28;20053;-73
2022/10/04 06:08:37;;;;;;;31.67;19.98;;;10.00;99.90;;;;;;4943666;28;205015;-72
2022/10/04 06:11:22;;;;;;;29.02;18.52;;;10.00;99.90;;;;;;4932316;28;212264;-73
2022/10/04 06:13:58;;;;;;;29.48;18.63;;;10.00;99.90;;;;;;4972864;28;20788;-72
2022/10/04 06:17:07;;;;;;;28.15;17.17;;;10.00;99.90;;;;;;4943568;28;209209;-73
2022/10/04 06:19:48;;;;;;;31.38;18.00;;;10.00;99.90;;;;;;4968009;28;20431;-74
2022/10/04 06:22:17;;;;;;;29.77;17.40;;;10.00;99.90;;;;;;4948689;28;189018;-73
2022/10/04 06:24:51;;;;;;;26.73;17.40;;;10.10;99.90;;;;;;4986517;28;20405;-74
2022/10/04 06:27:41;;;;;;;24.48;17.15;;;10.10;99.90;;;;;;4947797;28;211510;-74
2022/10/04 06:30:14;;;;;;;29.13;18.92;;;10.10;99.90;;;;;;4996203;28;20054;-74
2022/10/04 06:33:28;;;;;;;31.38;18.33;;;10.10;99.90;;;;;;4943008;28;206258;-73
2022/10/04 06:36:14;;;;;;;27.35;17.98;;;10.20;99.90;;;;;;4877437;28;206379;-73
2022/10/04 06:38:52;;;;;;;29.10;18.23;;;10.20;99.90;;;;;;4962982;28;20047;-73
2022/10/04 06:41:28;;;;;;;31.30;18.02;;;10.20;99.90;;;;;;4913705;28;209870;-75
2022/10/04 06:44:12;;;;;;;35.00;18.33;;;10.30;99.90;;;;;;4948134;28;20074;-74
2022/10/04 06:46:56;;;;;;;32.15;18.00;;;10.30;99.90;;;;;;4895985;28;205784;-73
2022/10/04 06:49:52;;;;;;;31.15;17.85;;;10.40;99.90;;;;;;4931546;28;20055;-73
2022/10/04 06:52:28;;;;;;;28.17;17.33;;;10.40;99.90;;;;;;4923454;28;138397;-74
2022/10/04 06:55:19;;;;;;;31.73;17.73;;;10.50;99.90;;;;;;4935714;28;20540;-72
2022/10/04 06:58:11;;;;;;;;;;;10.60;99.90;;;;;;4896273;28;206310;-74
2022/10/04 07:00:58;;;;;;;25.13;17.17;;;10.70;99.90;;;;;;4904866;28;207427;-72
2022/10/04 07:03:40;;;;;;;28.65;17.30;;;10.80;99.90;;;;;;4946991;28;20051;-72
2022/10/04 07:06:10;;;;;;;25.70;16.42;;;10.90;99.90;;;;;;4917240;28;205448;-74
2022/10/04 07:08:47;;;;;;;28.98;17.00;;;11.00;99.90;;;;;;4989283;28;20834;-73
2022/10/04 07:11:13;;;;;;;29.33;16.80;;;11.10;99.90;;;;;;4929798;28;215423;-73
2022/10/04 07:13:51;;;;;;;24.95;15.95;;;11.20;99.90;;;;;;5008663;28;20054;-74
2022/10/04 07:16:48;;;;;;;24.27;15.20;;;11.20;99.90;;;;;;4950246;28;210665;-74
2022/10/04 07:19:19;;;;;;;20.75;15.57;;;11.30;99.90;;;;;;4971619;28;20062;-75
2022/10/04 07:22:07;;;;;;;24.13;14.43;;;11.40;99.90;;;;;;4926067;28;205612;-73
2022/10/04 07:25:05;;;;;;;23.17;15.27;;;11.40;99.90;;;;;;4977139;28;20202;-73
2022/10/04 07:27:44;;;;;;;24.55;15.68;;;11.40;99.90;;;;;;4928539;28;201953;-73
2022/10/04 07:30:19;;;;;;;27.38;16.17;;;11.50;99.90;;;;;;4947740;28;193552;-72
2022/10/04 07:32:49;;;;;;;25.20;15.48;;;11.50;99.90;;;;;;4959156;28;169589;-71
2022/10/04 07:35:23;;;;;;;24.38;16.17;;;11.60;99.90;;;;;;4925765;28;208249;-71
2022/10/04 07:38:11;;;;;;;25.45;16.00;;;11.60;99.90;;;;;;4952777;28;20304;-72
2022/10/04 07:40:59;;;;;;;25.10;16.42;;;11.80;99.90;;;;;;4934485;28;225194;-72
2022/10/04 07:43:31;;;;;;;24.05;15.88;;;11.90;99.90;;;;;;4964341;28;20443;-70
2022/10/04 07:46:11;;;;;;;21.52;16.05;;;12.10;99.90;;;;;;4923471;28;203444;-71
2022/10/04 07:48:40;;;;;;;22.63;15.15;;;12.20;99.90;;;;;;4977859;28;20054;-71
2022/10/04 07:51:21;;;;;;;25.85;15.23;;;12.40;99.90;;;;;;4924423;28;208705;-72
2022/10/04 07:54:09;;;;;;;23.42;14.98;;;12.60;99.90;;;;;;4953220;28;20054;-73
2022/10/04 07:56:59;;;;;;;26.63;14.20;;;12.70;99.90;;;;;;4967764;28;209986;-73
2022/10/04 07:59:40;;;;;;;25.80;12.90;;;12.90;99.90;;;;;;5004989;28;20046;-73
2022/10/04 08:02:37;;;;;;;19.83;13.65;;;13.00;99.90;;;;;;4970055;28;183599;-72
2022/10/04 08:05:20;;;;;;;23.48;12.30;;;13.10;99.90;;;;;;5007644;28;20408;-72
2022/10/04 08:08:25;;;;;;;25.48;13.65;;;13.20;99.90;;;;;;4978039;28;206460;-71
2022/10/04 08:11:12;;;;;;;19.58;11.30;;;13.30;99.90;;;;;;4962410;28;218338;-72
2022/10/04 08:14:09;;;;;;;20.58;12.02;;;13.40;99.90;;;;;;5003962;28;20054;-72
2022/10/04 08:16:46;;;;;;;17.92;10.77;;;13.40;99.90;;;;;;4986309;28;217677;-73
2022/10/04 08:19:46;;;;;;;18.35;11.15;;;13.40;99.90;;;;;;4991150;28;20054;-72
2022/10/04 08:22:31;;;;;;;19.92;10.35;;;13.30;99.90;;;;;;4979986;28;208005;-70
2022/10/04 08:25:03;;;;;;;23.42;10.60;;;13.30;99.90;;;;;;5007582;28;20061;-71
2022/10/04 08:31:05;;;;;;;20.75;11.18;;;13.20;99.90;;;;;;4937365;28;174207;-73
2022/10/04 08:34:10;;;;;;;21.35;10.73;;;13.20;99.90;;;;;;4972914;28;20058;-72
2022/10/04 08:36:54;;;;;;;19.17;10.68;;;13.10;99.90;;;;;;4944969;28;210819;-72
2022/10/04 08:39:55;;;;;;;20.00;11.15;;;13.10;99.90;;;;;;4947574;28;20065;-73
2022/10/04 08:42:40;;;;;;;;;;;13.20;99.90;;;;;;4942847;28;208337;-73
2022/10/04 08:45:06;;;;;;;20.67;9.88;;;13.20;99.90;;;;;;4970015;28;20391;-72
2022/10/04 08:48:09;;;;;;;19.70;9.98;;;13.30;99.90;;;;;;4921638;28;267176;-73
2022/10/04 08:51:02;;;;;;;18.42;9.82;;;13.30;99.90;;;;;;4913257;28;207618;-72
2022/10/04 08:53:31;;;;;;;17.50;9.30;;;13.30;99.90;;;;;;4978125;28;20516;-71
2022/10/04 08:56:00;;;;;;;19.92;9.30;;;13.40;99.90;;;;;;4929763;28;64666;-72
2022/10/04 08:58:50;;;;;;;18.75;10.02;;;13.50;99.90;;;;;;4955387;28;20046;-71
2022/10/04 09:01:38;;;;;;;16.37;8.80;;;13.50;99.90;;;;;;4928299;28;207098;-71
2022/10/04 09:04:39;;;;;;;19.35;8.80;;;13.60;99.90;;;;;;4969505;28;20294;-73
2022/10/04 09:07:37;;;;;;;19.70;9.23;;;13.70;99.90;;;;;;4932169;28;206678;-71
2022/10/04 09:10:30;;;;;;;16.10;8.85;;;13.70;99.90;;;;;;5044907;28;20054;-71
2022/10/04 09:13:02;;;;;;;17.88;9.23;;;13.80;99.90;;;;;;4972141;28;114806;-72
2022/10/04 09:15:42;;;;;;;22.48;9.38;;;13.90;99.90;;;;;;4952370;28;215505;-73
2022/10/04 09:18:11;;;;;;;19.17;8.90;;;13.90;99.90;;;;;;5022605;28;20046;-70
2022/10/04 09:21:10;;;;;;;19.83;8.88;;;13.90;99.90;;;;;;4986755;28;242181;-71
2022/10/04 09:24:08;;;;;;;17.48;8.63;;;13.90;99.90;;;;;;4995861;28;20054;-72
2022/10/04 09:26:48;;;;;;;15.43;7.85;;;14.00;99.90;;;;;;4929226;28;209630;-72
2022/10/04 09:30:10;;;;;;;20.42;8.18;;;14.10;99.90;;;;;;4987471;28;20050;-71
2022/10/04 09:32:51;;;;;;;15.18;8.57;;;14.20;99.90;;;;;;4906413;28;206663;-73
2022/10/04 09:35:51;;;;;;;17.67;8.30;;;14.40;99.90;;;;;;4909196;28;202062;-72
2022/10/04 09:38:26;;;;;;;14.47;7.17;;;14.70;99.90;;;;;;4938960;28;20043;-71
2022/10/04 09:41:30;;;;;;;15.88;6.90;;;15.40;99.90;;;;;;4904810;28;178223;-71
2022/10/04 09:43:56;;;;;;;15.68;6.20;;;16.20;99.90;;;;;;4946942;28;20141;-71
2022/10/04 09:46:43;;;;;;;15.35;6.43;;;16.90;99.90;;;;;;4897162;29;219287;-72
2022/10/04 09:49:35;;;;;;;14.07;5.85;;;17.60;99.90;;;;;;4939079;28;20061;-70
2022/10/04 09:52:19;;;;;;;14.48;5.90;;;18.10;99.90;;;;;;4904674;28;209130;-72
2022/10/04 09:55:10;;;;;;;12.02;5.78;;;18.50;99.90;;;;;;4961910;28;20054;-73
2022/10/04 09:58:04;;;;;;;13.77;5.82;;;18.50;99.90;;;;;;4909635;28;207091;-72
2022/10/04 10:00:44;;;;;;;14.48;5.22;;;18.80;99.90;;;;;;4903245;28;206095;-71
2022/10/04 10:03:40;;;;;;;16.52;5.53;;;19.10;99.90;;;;;;4949092;28;20064;-70
2022/10/04 10:06:09;;;;;;;13.95;5.50;;;19.20;99.90;;;;;;4927879;28;136815;-71
2022/10/04 10:08:44;;;;;;;13.52;5.43;;;19.10;99.90;;;;;;4990379;28;20061;-71
2022/10/04 10:14:32;;;;;;;12.10;5.07;;;19.40;99.90;;;;;;5007815;28;20069;-72
2022/10/04 10:17:24;;;;;;;14.75;4.95;;;19.70;99.90;;;;;;4974775;28;217051;-73
2022/10/04 10:20:15;;;;;;;13.50;5.00;;;20.10;99.90;;;;;;5037390;28;20050;-74
2022/10/04 10:23:20;;;;;;;13.65;4.78;;;20.30;99.90;;;;;;4968354;28;167819;-72
2022/10/04 10:26:05;;;;;;;13.63;5.20;;;20.30;99.90;;;;;;4965067;28;206990;-70
2022/10/04 10:29:01;;;;;;;13.50;4.72;;;20.00;98.70;;;;;;5014322;28;20042;-71
2022/10/04 10:31:50;;;;;;;12.40;4.82;;;19.90;99.90;;;;;;4974610;28;209341;-74
2022/10/04 10:34:51;;;;;;;12.43;4.35;;;20.10;99.50;;;;;;5006645;28;20549;-74
2022/10/04 10:37:26;;;;;;;12.95;4.97;;;19.60;99.70;;;;;;4980947;28;209567;-71
2022/10/04 10:40:07;;;;;;;12.13;4.40;;;19.80;99.90;;;;;;5007857;28;20054;-73
2022/10/04 10:42:59;;;;;;;11.15;4.45;;;20.10;99.80;;;;;;4949553;28;208871;-72
2022/10/04 10:45:45;;;;;;;11.95;4.55;;;20.40;99.90;;;;;;4989937;28;218166;-72
2022/10/04 10:48:43;;;;;;;10.88;4.10;;;21.00;98.30;;;;;;4999214;28;20057;-75
2022/10/04 10:51:19;;;;;;;14.15;4.55;;;20.70;97.80;;;;;;4961907;28;212736;-72
2022/10/04 10:54:07;;;;;;;13.80;4.55;;;20.60;98.40;;;;;;5007620;28;20042;-70
2022/10/04 10:56:51;;;;;;;11.82;4.35;;;20.70;98.00;;;;;;4994443;28;139729;-72
2022/10/04 10:59:41;;;;;;;11.98;4.43;;;20.80;97.50;;;;;;4989114;28;20038;-71
2022/10/04 11:02:41;;;;;;;13.60;4.65;;;21.10;97.50;;;;;;4975979;28;215247;-71
2022/10/04 11:05:56;;;;;;;13.77;4.30;;;21.00;98.20;;;;;;5041151;28;20053;-71
2022/10/04 11:09:01;;;;;;;10.85;3.97;;;21.50;96.80;;;;;;4934670;28;206035;-73
2022/10/04 11:12:04;;;;;;;11.77;4.18;;;21.80;97.10;;;;;;4903873;28;211299;-72
2022/10/04 11:14:49;;;;;;;10.93;4.22;;;22.10;96.70;;;;;;4948335;28;20047;-72
2022/10/04 11:17:42;;;;;;;14.40;3.95;;;22.20;97.30;;;;;;4876414;29;212425;-73
2022/10/04 11:20:32;;;;;;;12.05;4.30;;;22.70;96.00;;;;;;4926729;29;20065;-71
2022/10/04 11:23:36;;;;;;;12.18;4.18;;;22.80;95.00;;;;;;4918914;28;209877;-72
2022/10/04 11:26:07;;;;;;;10.93;4.20;;;23.00;96.70;;;;;;4913939;28;57897;-71
2022/10/04 11:28:42;;;;;;;13.13;4.10;;;23.30;94.90;;;;;;4935436;28;20058;-73
2022/10/04 11:31:31;;;;;;;12.25;4.40;;;23.20;95.50;;;;;;4885399;28;217379;-71
2022/10/04 11:34:11;;;;;;;11.15;4.05;;;23.00;95.40;;;;;;4931544;29;20480;-71
2022/10/04 11:36:44;;;;;;;10.65;4.05;;;23.20;95.30;;;;;;4904791;28;213655;-72
2022/10/04 11:39:36;;;;;;;11.23;3.65;;;23.90;95.40;;;;;;4953721;28;20078;-72
2022/10/04 11:42:23;;;;;;;12.23;4.13;;;23.80;93.20;;;;;;4950005;28;209419;-73
2022/10/04 11:45:32;;;;;;;11.15;3.88;;;23.30;92.90;;;;;;5021312;28;20486;-71
2022/10/04 11:48:19;;;;;;;11.18;3.78;;;23.30;93.80;;;;;;4951489;28;205902;-72
2022/10/04 11:50:59;;;;;;;12.05;4.20;;;23.20;94.60;;;;;;4975421;28;196712;-72
2022/10/04 11:53:38;;;;;;;11.90;3.88;;;22.80;93.30;;;;;;5024328;28;20062;-71
2022/10/04 11:56:11;;;;;;;10.73;3.80;;;21.90;94.40;;;;;;4960217;28;224266;-73
2022/10/04 11:59:13;;;;;;;12.85;4.10;;;22.10;95.20;;;;;;5007000;28;20419;-70
2022/10/04 12:02:01;;;;;;;11.65;3.85;;;22.70;93.00;;;;;;4969129;28;209750;-71
2022/10/04 12:05:00;;;;;;;10.40;3.65;;;22.50;93.30;;;;;;4988244;28;20061;-72
2022/10/04 12:07:53;;;;;;;11.25;3.83;;;22.50;93.60;;;;;;4975352;28;206972;-72
2022/10/04 12:10:26;;;;;;;12.05;4.22;;;22.50;94.30;;;;;;4942778;28;165271;-75
2022/10/04 12:12:52;;;;;;;10.98;4.22;;;22.70;94.20;;;;;;5001939;28;20069;-71
2022/10/04 12:15:39;;;;;;;11.63;4.25;;;23.10;93.70;;;;;;4966312;28;102424;-71
2022/10/04 12:18:27;;;;;;;10.30;4.10;;;23.50;92.70;;;;;;4989575;28;20076;-71
2022/10/04 12:20:56;;;;;;;13.02;4.03;;;23.60;93.50;;;;;;4939860;28;202696;-71
2022/10/04 12:23:48;;;;;;;11.60;4.60;;;24.10;93.50;;;;;;4983196;28;20181;-72
2022/10/04 12:26:31;;;;;;;15.10;4.55;;;23.70;92.10;;;;;;4935015;28;206054;-72
2022/10/04 12:29:13;;;;;;;12.15;5.07;;;23.60;93.10;;;;;;5003613;28;20054;-71
2022/10/04 12:31:52;;;;;;;12.32;4.35;;;23.80;92.80;;;;;;4953405;28;212224;-72
2022/10/04 12:34:30;;;;;;;12.55;4.63;;;24.10;92.80;;;;;;4993276;28;20050;-71
2022/10/04 12:37:22;;;;;;;11.73;4.55;;;24.10;93.10;;;;;;4964999;28;176119;-73
2022/10/04 12:40:18;;;;;;;12.93;4.88;;;24.40;91.90;;;;;;4963568;28;20540;-73
2022/10/04 12:42:51;;;;;;;12.80;5.07;;;24.50;91.70;;;;;;4926267;28;164172;-71
2022/10/04 12:45:18;;;;;;;13.65;4.85;;;24.00;91.70;;;;;;4918540;28;212001;-70
2022/10/04 12:48:14;;;;;;;12.30;4.82;;;23.60;91.80;;;;;;4942685;28;22034;-71
2022/10/04 12:51:00;;;;;;;12.57;5.20;;;23.50;92.40;;;;;;4908617;28;205571;-71
2022/10/04 12:53:51;;;;;;;11.05;4.45;;;23.90;92.70;;;;;;4964426;28;20597;-72
2022/10/04 12:56:20;;;;;;;13.13;4.75;;;24.60;92.10;;;;;;4914225;28;207035;-72
2022/10/04 12:59:24;;;;;;;13.57;4.90;;;25.20;92.10;;;;;;4948988;29;20092;-72
2022/10/04 13:02:21;;;;;;;12.38;4.80;;;25.30;90.30;;;;;;4909057;28;155940;-72
2022/10/04 13:05:18;;;;;;;13.27;5.20;;;25.10;91.30;;;;;;4950492;28;20062;-72
2022/10/04 13:08:03;;;;;;;12.80;4.80;;;25.20;90.30;;;;;;4916420;28;221637;-74
2022/10/04 13:10:49;;;;;;;11.48;4.88;;;24.70;91.40;;;;;;4916376;28;117980;-72
2022/10/04 13:13:31;;;;;;;14.48;6.13;;;24.60;91.20;;;;;;4965869;28;20058;-73
2022/10/04 13:16:01;;;;;;;13.50;4.70;;;23.50;91.70;;;;;;4906311;28;204780;-72
2022/10/04 13:18:46;;;;;;;13.57;5.00;;;23.60;92.50;;;;;;4967878;28;20077;-73
2022/10/04 13:21:46;;;;;;;14.23;4.80;;;23.90;92.70;;;;;;4922720;28;206801;-72
2022/10/04 13:24:53;;;;;;;11.25;4.60;;;24.70;91.00;;;;;;4943406;28;20055;-71
2022/10/04 13:27:41;;;;;;;16.52;4.28;;;24.80;91.20;;;;;;4920784;28;155256;-73
2022/10/04 13:30:25;;;;;;;12.55;4.20;;;24.20;90.30;;;;;;4997931;28;20442;-71
2022/10/04 13:33:32;;;;;;;13.18;4.10;;;23.20;91.90;;;;;;4925765;28;27813;-72
2022/10/04 13:36:22;;;;;;;11.65;4.30;;;22.80;92.30;;;;;;4954488;28;222942;-73
2022/10/04 13:39:08;;;;;;;11.80;4.15;;;22.70;92.60;;;;;;4982370;28;20050;-73
2022/10/04 13:41:41;;;;;;;11.45;3.70;;;23.80;92.00;;;;;;4935377;28;207170;-74
2022/10/04 13:44:25;;;;;;;11.18;4.20;;;24.30;91.50;;;;;;4994061;28;20046;-76
2022/10/04 13:46:57;;;;;;;12.00;4.22;;;23.00;91.30;;;;;;4913603;28;208844;-72